Olib — 9AA6266 — position and weather

sailwx.info

Track history (hours):
 
Tides and Currents Weather Stations Pressure Air Temp Water Temp Dewpoint Dewpoint Depression Visibility Wind Speed Wind Dir Waves Ship Positions

Olib

Last reported at 2017-Jul-24 23:32 UTC. Time now 2017-Jul-26 00:45 UTC.
Position N 39°47' E 001°06'.

Length 247 m; draft 8.3 m.

Type: Tanker. MMSI: 238252000.

Date/timePositionNaut miles runAvg speedWind from/ knotsBaromVisibWave heightAir tempDewpointWater temp
2017-Jul-24 23:32N 39°47' E 001°06'0 0.9
2017-Jul-24 23:26N 39°47' E 001°06'1 1.1
2017-Jul-24 22:56N 39°47' E 001°05'2 0.5
2017-Jul-24 19:08N 39°47' E 001°03'0 0.2
2017-Jul-24 18:56N 39°47' E 001°03'0 0.2
2017-Jul-24 18:26N 39°47' E 001°03'0 0.2
2017-Jul-24 17:20N 39°46' E 001°03'0 0.2
2017-Jul-24 16:56N 39°46' E 001°03'0 0.1
2017-Jul-24 15:44N 39°46' E 001°03'2 0.3
2017-Jul-24 07:26N 39°48' E 001°02'10 0.3
2017-Jul-23 01:56N 39°54' E 001°12'0 0.1
2017-Jul-23 01:26N 39°54' E 001°12'0 0.1
2017-Jul-23 00:32N 39°54' E 001°12'0 0.2
2017-Jul-23 00:20N 39°54' E 001°12'0 0.2
2017-Jul-22 23:56N 39°54' E 001°12'0 0.2
2017-Jul-22 23:23N 39°54' E 001°12'0 0.3
2017-Jul-22 22:44N 39°53' E 001°11'0 0.2
2017-Jul-22 22:26N 39°53' E 001°11'0 0.3
2017-Jul-22 21:56N 39°53' E 001°11'0 0.1
2017-Jul-22 21:26N 39°53' E 001°11'10 0.4
2017-Jul-21 17:41N 39°59' E 001°22'0 2.4
2017-Jul-21 17:30N 39°59' E 001°22'3 7.1
2017-Jul-21 17:01N 40°01' E 001°18'612.1
2017-Jul-21 16:29N 40°03' E 001°11'612.1
2017-Jul-21 15:59N 40°06' E 001°03'59 1.2
2017-Jul-19 13:54N 41°05' E 001°13'2 4.1
2017-Jul-19 13:30N 41°04' E 001°15'2 0.1
2017-Jul-18 17:15N 41°05' E 001°17'0 0.0
2017-Jul-18 15:27N 41°05' E 001°17'24 0.9
2017-Jul-17 12:26N 40°42' E 001°10'512.5
2017-Jul-17 12:00N 40°37' E 001°12'612.4
2017-Jul-17 11:30N 40°31' E 001°16'612.5
2017-Jul-17 11:00N 40°26' E 001°20'612.5
2017-Jul-17 10:30N 40°20' E 001°23'612.5
2017-Jul-17 10:00N 40°15' E 001°27'612.3
2017-Jul-17 09:30N 40°09' E 001°31'612.5
2017-Jul-17 09:00N 40°04' E 001°35'612.6
2017-Jul-17 08:30N 39°58' E 001°39'612.7
2017-Jul-17 08:00N 39°53' E 001°43'612.7
2017-Jul-17 07:30N 39°47' E 001°47'2612.7
2017-Jul-17 05:28N 39°26' E 002°06'612.6
2017-Jul-17 05:00N 39°21' E 002°10'612.6
2017-Jul-17 04:30N 39°17' E 002°16'1812.8
2017-Jul-17 03:06N 39°05' E 002°34'212.9
2017-Jul-17 02:58N 39°04' E 002°35'613.0
2017-Jul-17 02:30N 38°60' E 002°41'2112.7
2017-Jul-17 00:51N 38°51' E 003°05'512.9
2017-Jul-17 00:27N 38°50' E 003°12'4412.6
2017-Jul-16 20:59N 38°40' E 004°07'612.4
2017-Jul-16 20:30N 38°39' E 004°14'612.0
2017-Jul-16 20:00N 38°38' E 004°22'711.7
2017-Jul-16 19:23N 38°36' E 004°30'24911.8
2017-Jul-15 22:17N 37°43' E 009°39'310.3
2017-Jul-15 22:00N 37°42' E 009°43'12911.1
2017-Jul-15 10:21N 37°01' E 012°16'411.8
2017-Jul-15 09:59N 36°59' E 012°21'611.6
2017-Jul-15 09:30N 36°57' E 012°28'611.5
2017-Jul-15 09:00N 36°55' E 012°35'1411.4
2017-Jul-15 07:48N 36°50' E 012°51'412.0
2017-Jul-15 07:29N 36°49' E 012°55'612.2
2017-Jul-15 06:59N 36°47' E 013°02'611.7
2017-Jul-15 06:28N 36°45' E 013°09'511.6
2017-Jul-15 06:00N 36°43' E 013°16'611.6
2017-Jul-15 05:30N 36°41' E 013°22'811.6
2017-Jul-15 04:50N 36°38' E 013°31'411.8
2017-Jul-15 04:30N 36°37' E 013°36'612.0
2017-Jul-15 04:00N 36°34' E 013°43'612.1
2017-Jul-15 03:29N 36°32' E 013°50'612.1
2017-Jul-15 03:00N 36°30' E 013°57'612.0
2017-Jul-15 02:30N 36°28' E 014°04'611.9
2017-Jul-15 02:00N 36°26' E 014°11'611.8
2017-Jul-15 01:30N 36°24' E 014°18'611.9
2017-Jul-15 01:00N 36°22' E 014°25'611.9
2017-Jul-15 00:29N 36°20' E 014°32'712.0
2017-Jul-14 23:53N 36°20' E 014°41'  
Track history (hours):
 
Tides and Currents Weather Stations Pressure Air Temp Water Temp Dewpoint Dewpoint Depression Visibility Wind Speed Wind Dir Waves Ship Positions

Olib

Last reported at 2017-Jul-24 23:32 UTC. Time now 2017-Jul-26 00:45 UTC.
Position N 39°47' E 001°06'.

Length 247 m; draft 8.3 m.

Type: Tanker. MMSI: 238252000.

Date/timePositionNaut miles runAvg speedWind from/ knotsBaromVisibWave heightAir tempDewpointWater temp
2017-Jul-24 23:32N 39°47' E 001°06'0 0.9
2017-Jul-24 23:26N 39°47' E 001°06'1 1.1
2017-Jul-24 22:56N 39°47' E 001°05'2 0.5
2017-Jul-24 19:08N 39°47' E 001°03'0 0.2
2017-Jul-24 18:56N 39°47' E 001°03'0 0.2
2017-Jul-24 18:26N 39°47' E 001°03'0 0.2
2017-Jul-24 17:20N 39°46' E 001°03'0 0.2
2017-Jul-24 16:56N 39°46' E 001°03'0 0.1
2017-Jul-24 15:44N 39°46' E 001°03'2 0.3
2017-Jul-24 07:26N 39°48' E 001°02'10 0.3
2017-Jul-23 01:56N 39°54' E 001°12'0 0.1
2017-Jul-23 01:26N 39°54' E 001°12'0 0.1
2017-Jul-23 00:32N 39°54' E 001°12'0 0.2
2017-Jul-23 00:20N 39°54' E 001°12'0 0.2
2017-Jul-22 23:56N 39°54' E 001°12'0 0.2
2017-Jul-22 23:23N 39°54' E 001°12'0 0.3
2017-Jul-22 22:44N 39°53' E 001°11'0 0.2
2017-Jul-22 22:26N 39°53' E 001°11'0 0.3
2017-Jul-22 21:56N 39°53' E 001°11'0 0.1
2017-Jul-22 21:26N 39°53' E 001°11'10 0.4
2017-Jul-21 17:41N 39°59' E 001°22'0 2.4
2017-Jul-21 17:30N 39°59' E 001°22'3 7.1
2017-Jul-21 17:01N 40°01' E 001°18'612.1
2017-Jul-21 16:29N 40°03' E 001°11'612.1
2017-Jul-21 15:59N 40°06' E 001°03'59 1.2
2017-Jul-19 13:54N 41°05' E 001°13'2 4.1
2017-Jul-19 13:30N 41°04' E 001°15'2 0.1
2017-Jul-18 17:15N 41°05' E 001°17'0 0.0
2017-Jul-18 15:27N 41°05' E 001°17'24 0.9
2017-Jul-17 12:26N 40°42' E 001°10'512.5
2017-Jul-17 12:00N 40°37' E 001°12'612.4
2017-Jul-17 11:30N 40°31' E 001°16'612.5
2017-Jul-17 11:00N 40°26' E 001°20'612.5
2017-Jul-17 10:30N 40°20' E 001°23'612.5
2017-Jul-17 10:00N 40°15' E 001°27'612.3
2017-Jul-17 09:30N 40°09' E 001°31'612.5
2017-Jul-17 09:00N 40°04' E 001°35'612.6
2017-Jul-17 08:30N 39°58' E 001°39'612.7
2017-Jul-17 08:00N 39°53' E 001°43'612.7
2017-Jul-17 07:30N 39°47' E 001°47'2612.7
2017-Jul-17 05:28N 39°26' E 002°06'612.6
2017-Jul-17 05:00N 39°21' E 002°10'612.6
2017-Jul-17 04:30N 39°17' E 002°16'1812.8
2017-Jul-17 03:06N 39°05' E 002°34'212.9
2017-Jul-17 02:58N 39°04' E 002°35'613.0
2017-Jul-17 02:30N 38°60' E 002°41'2112.7
2017-Jul-17 00:51N 38°51' E 003°05'512.9
2017-Jul-17 00:27N 38°50' E 003°12'4412.6
2017-Jul-16 20:59N 38°40' E 004°07'612.4
2017-Jul-16 20:30N 38°39' E 004°14'612.0
2017-Jul-16 20:00N 38°38' E 004°22'711.7
2017-Jul-16 19:23N 38°36' E 004°30'24911.8
2017-Jul-15 22:17N 37°43' E 009°39'310.3
2017-Jul-15 22:00N 37°42' E 009°43'12911.1
2017-Jul-15 10:21N 37°01' E 012°16'411.8
2017-Jul-15 09:59N 36°59' E 012°21'611.6
2017-Jul-15 09:30N 36°57' E 012°28'611.5
2017-Jul-15 09:00N 36°55' E 012°35'1411.4
2017-Jul-15 07:48N 36°50' E 012°51'412.0
2017-Jul-15 07:29N 36°49' E 012°55'612.2
2017-Jul-15 06:59N 36°47' E 013°02'611.7
2017-Jul-15 06:28N 36°45' E 013°09'511.6
2017-Jul-15 06:00N 36°43' E 013°16'611.6
2017-Jul-15 05:30N 36°41' E 013°22'811.6
2017-Jul-15 04:50N 36°38' E 013°31'411.8
2017-Jul-15 04:30N 36°37' E 013°36'612.0
2017-Jul-15 04:00N 36°34' E 013°43'612.1
2017-Jul-15 03:29N 36°32' E 013°50'612.1
2017-Jul-15 03:00N 36°30' E 013°57'612.0
2017-Jul-15 02:30N 36°28' E 014°04'611.9
2017-Jul-15 02:00N 36°26' E 014°11'611.8
2017-Jul-15 01:30N 36°24' E 014°18'611.9
2017-Jul-15 01:00N 36°22' E 014°25'611.9
2017-Jul-15 00:29N 36°20' E 014°32'712.0
2017-Jul-14 23:53N 36°20' E 014°41'  

Dump ship's entire track history